Latest Weather Observations for Melbourne Airport

IDV60801

Issued at 12:32 pm EST Sunday 28 May 2017 (issued every 30 minutes, with the page automatically refreshed every 10 minutes)

About weather observations | Map of weather stations | Latest weather observations for VIC | Other Formats
Station Details ID: 086282 Name: MELBOURNE AIRPORT Lat: -37.67 Lon: 144.83 Height: 113.4 m
Data from the previous 72 hours. | See also: Recent months at Melbourne Airport
Date/Time
EST
Temp
°C
App
Temp
°C
Dew
Point
°C
Rel
Hum
%
Delta-T
°C
Wind Press
QNH
hPa
Press
MSL
hPa
Rain since
9am
mm
Dir  Spd
km/h
Gust
km/h
Spd
kts
Gust
kts
28/12:00pm 13.5 6.8 3.9 52 4.4 W 28 35 15 19 1007.9 1007.9 0.0
28/11:30am 13.0 8.4 5.8 61 3.4 NW 19 26 10 14 1008.3 1008.3 0.0
28/11:00am 11.6 7.9 6.3 70 2.5 WNW 15 24 8 13 1008.6 1008.6 0.0
28/10:30am 11.2 7.1 6.3 72 2.3 WNW 17 26 9 14 1008.6 1008.6 0.0
28/10:16am 10.1 3.6 6.7 79 1.6 W 30 48 16 26 1008.6 1008.6 0.0
28/10:11am 10.5 5.4 6.0 74 2.1 WNW 22 48 12 26 1008.7 1008.7 0.0
28/10:00am 11.8 7.1 6.1 68 2.7 WNW 20 30 11 16 1008.3 1008.3 0.0
28/09:30am 11.7 8.0 6.5 70 2.5 NNW 15 20 8 11 1008.2 1008.2 0.0
28/09:00am 11.2 7.8 6.1 71 2.4 NNW 13 19 7 10 1008.2 1008.2 5.8
28/08:30am 10.1 6.7 5.8 74 2.0 NW 13 17 7 9 1008.1 1008.1 5.8
28/08:00am 9.5 6.6 6.3 80 1.5 NNW 11 15 6 8 1007.8 1007.8 5.8
28/07:30am 10.1 6.6 7.0 81 1.5 NW 15 19 8 10 1007.6 1007.6 5.8
28/07:00am 10.0 7.3 7.3 83 1.3 NNW 11 13 6 7 1007.5 1007.5 5.8
28/06:30am 10.3 7.2 7.4 82 1.4 NW 13 17 7 9 1007.5 1007.5 5.8
28/06:00am 10.1 7.1 7.8 86 1.1 NW 13 17 7 9 1007.2 1007.2 5.8
28/05:30am 10.7 6.8 7.2 79 1.7 NNW 17 20 9 11 1007.1 1007.1 5.6
28/05:00am 10.8 6.4 6.6 75 2.0 NNW 19 28 10 15 1007.0 1007.0 5.6
28/04:30am 10.9 6.0 6.9 76 1.9 N 22 30 12 16 1006.9 1006.9 5.6
28/04:00am 10.6 5.8 7.5 81 1.5 NNW 22 28 12 15 1007.1 1007.1 5.6
28/03:30am 10.3 6.1 7.6 83 1.3 N 19 26 10 14 1007.2 1007.2 5.6
28/03:00am 9.8 5.6 7.3 84 1.2 N 19 20 10 11 1007.1 1007.1 5.6
28/02:30am 9.6 5.8 7.7 88 0.9 N 17 22 9 12 1007.7 1007.7 5.6
28/02:00am 9.1 5.4 8.1 93 0.5 NNE 17 19 9 10 1008.5 1008.5 5.6
28/01:30am 9.1 5.6 7.4 89 0.8 WNW 15 19 8 10 1008.8 1008.8 5.6
28/01:10am 8.9 2.2 7.4 90 0.7 W 32 41 17 22 1009.6 1009.6 5.0
28/01:00am 9.0 1.1 7.8 92 0.6 W 39 52 21 28 1009.7 1009.7 3.6
28/12:53am 10.3 3.0 7.4 82 1.4 W 35 52 19 28 1009.7 1009.7 1.4
28/12:48am 11.6 5.3 7.3 75 2.1 NW 30 46 16 25 1009.5 1009.5 1.0
28/12:30am 12.4 6.8 10.1 86 1.2 N 30 39 16 21 1007.3 1007.3 0.6
28/12:00am 12.9 6.8 9.8 81 1.6 N 32 44 17 24 1008.2 1008.2 0.4
 
Date/Time
EST
Temp
°C
App
Temp
°C
Dew
Point
°C
Rel
Hum
%
Delta-T
°C
Wind Press
QNH
hPa
Press
MSL
hPa
Rain since
9am
mm
Dir  Spd
km/h
Gust
km/h
Spd
kts
Gust
kts
27/11:30pm 12.9 5.9 9.8 81 1.6 NNE 37 50 20 27 1008.1 1008.1 0.4
27/11:14pm 13.1 5.6 9.6 79 1.8 NNE 39 65 21 35 1008.2 1008.2 0.4
27/11:00pm 12.8 5.8 10.1 84 1.4 N 37 52 20 28 1008.5 1008.5 0.4
27/10:30pm 13.2 5.8 9.9 80 1.7 N 39 57 21 31 1009.1 1009.1 0.4
27/10:00pm 13.5 7.2 9.8 78 1.9 N 33 43 18 23 1009.8 1009.8 0.4
27/09:30pm 14.2 7.0 9.1 71 2.6 N 37 48 20 26 1009.9 1009.9 0.0
27/09:00pm 14.3 7.4 9.0 70 2.7 N 35 44 19 24 1009.7 1009.7 0.0
27/08:31pm 14.6 6.5 8.7 67 3.0 N 41 59 22 32 1009.8 1009.8 0.0
27/08:30pm 14.6 6.5 8.7 67 3.0 N 41 56 22 30 1009.8 1009.8 0.0
27/08:00pm 14.8 7.1 8.7 67 3.1 N 39 52 21 28 1010.2 1010.2 0.0
27/07:49pm 14.8 8.2 8.7 67 3.1 N 33 54 18 29 1010.2 1010.2 0.0
27/07:30pm 14.8 8.8 8.7 67 3.1 N 30 41 16 22 1010.6 1010.6 0.0
27/07:00pm 15.0 9.4 8.7 66 3.2 N 28 43 15 23 1011.1 1011.1 0.0
27/06:30pm 15.3 8.9 8.4 63 3.5 N 32 44 17 24 1011.0 1011.0 0.0
27/06:00pm 15.5 9.1 8.7 64 3.5 N 32 46 17 25 1011.0 1011.0 0.0
27/05:30pm 15.6 9.1 8.8 64 3.5 N 33 41 18 22 1011.1 1011.1 0.0
27/05:00pm 15.8 9.5 7.6 58 4.1 N 30 35 16 19 1011.2 1011.2 0.0
27/04:30pm 15.9 10.9 8.0 59 4.0 N 24 33 13 18 1011.6 1011.6 0.0
27/04:00pm 16.1 10.7 8.0 58 4.1 N 26 39 14 21 1011.8 1011.8 0.0
27/03:30pm 16.0 10.0 8.8 62 3.7 N 30 39 16 21 1011.9 1011.9 0.0
27/03:00pm 16.2 10.2 8.6 60 3.9 N 30 39 16 21 1012.1 1012.1 0.0
27/02:30pm 16.4 9.4 8.6 60 4.0 N 35 46 19 25 1012.4 1012.4 0.0
27/02:00pm 16.6 10.7 8.9 60 4.0 N 30 43 16 23 1012.7 1012.7 0.0
27/01:30pm 16.4 9.1 8.9 61 3.9 N 37 48 20 26 1013.2 1013.2 0.0
27/01:19pm 16.5 10.5 8.7 60 4.0 N 30 48 16 26 1013.4 1013.4 0.0
27/01:00pm 17.1 9.4 8.8 58 4.3 N 39 50 21 27 1013.7 1013.7 0.0
27/12:30pm 17.0 9.3 8.7 58 4.3 N 39 52 21 28 1014.1 1014.1 0.0
27/12:16pm 17.7 12.4 9.8 60 4.2 N 28 52 15 28 1014.5 1014.5 0.0
27/12:00pm 16.1 9.4 9.6 65 3.4 N 35 48 19 26 1015.0 1015.0 0.0
27/11:30am 16.2 9.1 9.7 65 3.4 N 37 48 20 26 1015.7 1015.7 0.0
27/11:00am 15.7 9.7 10.2 70 2.9 N 32 39 17 21 1016.3 1016.4 0.0
27/10:30am 15.0 8.5 10.2 73 2.5 N 35 44 19 24 1017.0 1017.1 0.0
27/10:00am 14.2 7.6 10.0 76 2.2 N 35 48 19 26 1017.2 1017.3 0.0
27/09:30am 13.7 7.1 10.0 78 1.9 N 35 43 19 23 1017.3 1017.4 0.0
27/09:00am 12.6 6.4 9.9 83 1.4 N 33 41 18 22 1017.6 1017.7 0.0
27/08:30am 12.3 7.0 10.0 86 1.2 N 28 37 15 20 1018.1 1018.1 0.0
27/08:00am 12.1 6.1 10.0 87 1.1 N 32 39 17 21 1017.8 1017.9 0.0
27/07:32am 12.1 6.1 10.0 87 1.1 N 32 50 17 27 1017.7 1017.8 0.0
27/07:30am 12.0 6.4 10.1 88 1.0 N 30 37 16 20 1017.7 1017.8 0.0
27/07:00am 12.1 6.9 10.2 88 1.0 N 28 33 15 18 1017.9 1018.0 0.0
27/06:30am 12.0 7.9 10.1 88 1.0 N 22 32 12 17 1017.8 1017.9 0.0
27/06:00am 11.8 8.1 10.2 90 0.8 NNE 20 26 11 14 1017.6 1017.7 0.0
27/05:30am 12.4 8.0 10.3 87 1.1 NNE 24 32 13 17 1017.7 1017.8 0.0
27/05:00am 12.4 8.4 10.5 88 1.0 N 22 28 12 15 1017.7 1017.8 0.0
27/04:30am 12.1 8.1 10.6 90 0.8 N 22 28 12 15 1017.8 1017.9 0.0
27/04:00am 12.4 8.1 10.9 90 0.8 N 24 30 13 16 1018.1 1018.1 0.0
27/03:30am 12.0 8.5 10.9 93 0.6 N 20 28 11 15 1018.4 1018.4 0.0
27/03:00am 12.4 8.1 10.9 90 0.8 N 24 32 13 17 1018.5 1018.5 0.0
27/02:30am 12.1 8.8 10.8 92 0.7 N 19 26 10 14 1018.8 1018.8 0.0
27/02:00am 12.0 8.1 10.7 92 0.7 N 22 30 12 16 1018.9 1018.9 0.0
27/01:30am 12.1 8.6 11.0 93 0.6 N 20 28 11 15 1019.0 1019.0 0.0
27/01:00am 11.9 8.5 10.5 91 0.7 N 19 22 10 12 1019.2 1019.2 0.0
27/12:30am 11.8 7.8 10.6 92 0.6 N 22 32 12 17 1019.4 1019.4 0.0
27/12:00am 12.2 7.9 10.7 90 0.8 N 24 35 13 19 1019.4 1019.4 0.0
 
Date/Time
EST
Temp
°C
App
Temp
°C
Dew
Point
°C
Rel
Hum
%
Delta-T
°C
Wind Press
QNH
hPa
Press
MSL
hPa
Rain since
9am
mm
Dir  Spd
km/h
Gust
km/h
Spd
kts
Gust
kts
26/11:30pm 12.2 7.9 10.7 90 0.8 N 24 39 13 21 1019.6 1019.6 0.0
26/11:00pm 12.1 8.6 10.8 92 0.7 N 20 26 11 14 1019.7 1019.7 0.0
26/10:30pm 12.0 7.3 10.7 92 0.7 N 26 41 14 22 1019.8 1019.8 0.0
26/10:00pm 11.8 7.4 10.4 91 0.7 N 24 35 13 19 1020.0 1020.0 0.0
26/09:30pm 11.8 8.0 9.8 87 1.0 N 20 26 11 14 1020.1 1020.1 0.0
26/09:00pm 10.5 7.1 9.1 91 0.7 N 17 26 9 14 1019.9 1019.9 0.0
26/08:30pm 12.4 7.9 9.9 85 1.3 N 24 28 13 15 1020.1 1020.1 0.0
26/08:00pm 11.8 8.9 9.6 86 1.1 N 15 19 8 10 1020.0 1020.0 0.0
26/07:30pm 12.4 9.1 9.4 82 1.5 N 17 20 9 11 1019.9 1019.9 0.0
26/07:00pm 11.8 8.5 9.4 85 1.2 N 17 20 9 11 1019.9 1019.9 0.0
26/06:30pm 12.7 8.8 9.6 81 1.6 N 20 26 11 14 1019.8 1019.8 0.0
26/06:00pm 13.5 9.9 9.8 78 1.9 N 19 24 10 13 1019.7 1019.7 0.0
26/05:30pm 13.3 9.6 10.0 80 1.7 N 20 30 11 16 1019.6 1019.6 0.0
26/05:00pm 14.2 10.1 10.2 77 2.1 N 22 33 12 18 1019.5 1019.5 0.0
26/04:30pm 15.7 12.1 10.4 71 2.8 N 20 26 11 14 1019.6 1019.6 0.0
26/04:00pm 15.8 11.4 10.3 70 2.9 N 24 32 13 17 1019.7 1019.7 0.0
26/03:30pm 17.0 15.3 9.8 62 3.8 NE 9 22 5 12 1019.6 1019.6 0.0
26/03:00pm 16.6 14.6 8.8 60 4.0 NNE 9 13 5 7 1019.4 1019.4 0.0
26/02:30pm 17.1 15.2 9.2 59 4.1 ENE 9 15 5 8 1019.7 1019.7 0.0
26/02:00pm 16.4 14.7 8.4 59 4.1 N 7 15 4 8 1020.2 1020.2 0.0
26/01:30pm 15.6 13.1 8.1 61 3.8 SE 11 15 6 8 1020.5 1020.5 0.0
26/01:00pm 15.2 13.2 8.5 64 3.4 S 9 13 5 7 1020.9 1020.9 0.0
26/12:30pm 14.7 12.6 8.1 64 3.3 S 9 15 5 8 1021.5 1021.5 0.0
26/12:00pm 14.7 13.2 8.3 65 3.2 WSW 6 11 3 6 1021.9 1021.9 0.0
26/11:30am 14.3 12.9 7.4 63 3.4 SSE 4 9 2 5 1022.5 1022.5 0.0
26/11:00am 13.9 12.4 9.0 72 2.5 SW 7 9 4 5 1022.9 1022.9 0.0
26/10:30am 14.0 12.2 9.3 73 2.4 W 9 11 5 6 1023.1 1023.1 0.0
26/10:00am 13.4 12.1 9.9 79 1.8 WSW 7 11 4 6 1023.1 1023.1 0.0
26/09:30am 13.1 11.8 9.8 80 1.7 WSW 7 9 4 5 1023.0 1023.0 0.0
26/09:00am 12.8 11.7 9.9 82 1.5 W 6 7 3 4 1023.0 1023.0 0.0
26/08:30am 12.4 12.5 10.1 86 1.2 CALM 0 2 0 1 1022.8 1022.8 0.0
26/08:00am 11.8 10.7 9.8 87 1.0 NW 6 9 3 5 1022.6 1022.6 0.0
26/07:30am 11.4 10.2 10.2 92 0.6 W 7 9 4 5 1022.3 1022.3 0.0
26/07:00am 11.4 9.8 10.2 92 0.6 W 9 11 5 6 1022.0 1022.0 0.0
26/06:30am 11.5 9.9 10.3 92 0.6 WSW 9 11 5 6 1021.8 1021.8 0.0
26/06:00am 11.7 10.1 10.3 91 0.7 WSW 9 11 5 6 1021.5 1021.5 0.0
26/05:30am 11.8 10.4 10.8 94 0.5 WNW 9 11 5 6 1021.1 1021.1 0.0
26/05:00am 12.1 9.9 10.8 92 0.7 WSW 13 17 7 9 1020.8 1020.8 0.0
26/04:30am 12.2 10.9 11.4 95 0.4 WSW 9 9 5 5 1020.5 1020.5 0.0
26/04:00am 12.3 11.1 11.7 96 0.3 WSW 9 11 5 6 1020.4 1020.4 0.0
26/03:30am 12.5 10.6 11.7 95 0.4 WSW 13 15 7 8 1020.3 1020.3 0.0
26/03:00am 12.6 9.9 11.7 94 0.5 W 17 22 9 12 1020.2 1020.2 0.0
26/02:30am 12.9 8.8 11.6 92 0.7 WSW 24 33 13 18 1020.2 1020.2 0.0
26/02:00am 13.6 10.6 10.5 81 1.6 NNW 17 20 9 11 1019.7 1019.7 0.0
26/01:30am 12.7 8.3 10.4 86 1.2 N 24 28 13 15 1019.7 1019.7 0.0
26/01:00am 12.5 7.7 10.2 86 1.2 N 26 30 14 16 1019.5 1019.5 0.0
26/12:30am 12.4 7.9 10.1 86 1.2 N 24 30 13 16 1019.7 1019.7 0.0
26/12:00am 12.0 7.1 10.1 88 1.0 N 26 30 14 16 1019.7 1019.7 0.0
 
Date/Time
EST
Temp
°C
App
Temp
°C
Dew
Point
°C
Rel
Hum
%
Delta-T
°C
Wind Press
QNH
hPa
Press
MSL
hPa
Rain since
9am
mm
Dir  Spd
km/h
Gust
km/h
Spd
kts
Gust
kts
25/11:30pm 11.8 7.7 10.0 89 0.9 N 22 30 12 16 1019.7 1019.7 0.0
25/11:00pm 11.9 7.0 9.9 87 1.0 N 26 30 14 16 1019.9 1019.9 0.0
25/10:30pm 12.3 7.0 9.8 85 1.3 N 28 33 15 18 1019.7 1019.7 0.0
25/10:00pm 12.6 7.7 10.1 85 1.3 N 26 33 14 18 1019.8 1019.8 0.0
25/09:30pm 13.4 8.5 10.1 80 1.7 NNW 26 33 14 18 1019.6 1019.6 0.0
25/09:00pm 13.5 8.3 10.2 80 1.7 N 28 35 15 19 1019.4 1019.4 0.0
25/08:30pm 13.4 9.0 10.5 82 1.5 N 24 32 13 17 1019.6 1019.6 0.0
25/08:00pm 13.5 8.8 10.6 82 1.5 N 26 32 14 17 1019.6 1019.6 0.0
25/07:30pm 14.1 9.3 10.3 78 2.0 N 26 32 14 17 1019.7 1019.7 0.0
25/07:00pm 14.3 10.3 10.3 77 2.1 N 22 28 12 15 1019.6 1019.6 0.0
25/06:30pm 14.5 10.0 9.9 74 2.4 N 24 33 13 18 1019.5 1019.5 0.0
25/06:00pm 14.6 11.0 9.8 73 2.5 NNW 19 26 10 14 1019.4 1019.4 0.0
25/05:30pm 15.0 11.3 9.6 70 2.8 NNW 19 30 10 16 1019.2 1019.2 0.0
25/05:00pm 15.3 11.4 9.3 67 3.1 NNW 20 32 11 17 1019.1 1019.1 0.0
25/04:30pm 15.6 11.6 9.0 65 3.4 NNW 20 30 11 16 1019.0 1019.0 0.0
25/04:00pm 16.0 12.0 9.0 63 3.6 NNW 20 26 11 14 1018.8 1018.8 0.0
25/03:30pm 16.1 12.1 8.9 62 3.7 NNW 20 28 11 15 1018.7 1018.7 0.0
25/03:00pm 16.4 12.3 8.8 60 3.9 NW 20 30 11 16 1018.7 1018.7 0.0
25/02:30pm 16.7 13.1 8.5 58 4.2 NNW 17 28 9 15 1018.7 1018.7 0.0
25/02:00pm 17.0 13.0 8.4 57 4.4 NW 19 26 10 14 1018.9 1018.9 0.0
25/01:30pm 17.0 12.3 7.9 55 4.6 NW 22 32 12 17 1019.0 1019.0 0.0
25/01:00pm 16.1 12.7 7.8 58 4.2 NNW 15 26 8 14 1019.5 1019.5 0.0

Other Formats:

Comma delimited format used in spreadsheet applications
http://www.bom.gov.au/fwo/IDV60801/IDV60801.94866.axf

JavaScript Object Notation format (JSON) in row-major order
http://www.bom.gov.au/fwo/IDV60801/IDV60801.94866.json